Weather at General Ulpiano Paez Airport

Public forecast

Using degrees Celsius for public forecast. Weather courtesy of forecast.io.

Current aviation weather report (METAR) for General Ulpiano Paez Airport

Retrieved 2020/12/03 22:00 UTC (43 minutes ago):

SESA 032200Z 23008KT 99999 SCT013 24/20 Q1010 RMK A2984

Aviation forecast (TAF) for General Ulpiano Paez Airport

Forecast is more than 12 hours old.

Retrieved 2016/09/01 18:00 UTC (4 years ago):

TAF COR SCAT 011759Z 0118/0218 22010KT 9999 BKN018 TX16/0118Z TN08SAEQ01 SEQU 011800 RRE METAR SESA 011800Z 25008KT 9999 SCT010 BKN015 24/19 Q1013